Time,TemperatureF,DewpointF,PressureIn,WindDirection,WindDirectionDegrees,WindSpeedMPH,WindSpeedGustMPH,Humidity,HourlyPrecipIn,Conditions,Clouds,dailyrainin,SoftwareType,DateUTC
2013-02-20 00:12:00,27.3,19.1,29.87,WSW,250,7.0,8.0,71,0.00,,SKC,0.00,VWS V12.07,2013-02-20 08:12:00,
2013-02-20 00:22:00,26.4,18.9,29.88,SW,221,3.0,8.0,73,0.00,,SKC,0.00,VWS V12.07,2013-02-20 08:22:00,
2013-02-20 00:32:00,26.7,19.5,29.88,SW,221,6.0,7.0,74,0.00,,SKC,0.00,VWS V12.07,2013-02-20 08:32:00,
2013-02-20 00:42:00,26.9,19.4,29.89,SW,221,4.0,7.0,73,0.00,,SKC,0.00,VWS V12.07,2013-02-20 08:42:00,
2013-02-20 00:52:00,26.4,18.9,29.88,SW,221,3.0,7.0,73,0.00,,SKC,0.00,VWS V12.07,2013-02-20 08:52:00,
2013-02-20 01:02:00,25.8,18.7,29.88,SW,232,4.0,7.0,74,0.00,,SKC,0.00,VWS V12.07,2013-02-20 09:02:00,
2013-02-20 01:12:00,26.1,19.0,29.89,WSW,240,7.0,7.0,74,0.00,,SKC,0.00,VWS V12.07,2013-02-20 09:12:00,
2013-02-20 01:22:00,27.0,18.9,29.90,WSW,242,4.0,7.0,71,0.00,,SKC,0.00,VWS V12.07,2013-02-20 09:22:00,
2013-02-20 01:32:00,26.7,17.9,29.89,WSW,242,4.0,5.0,69,0.00,,SKC,0.00,VWS V12.07,2013-02-20 09:32:00,
2013-02-20 01:42:00,25.7,17.3,29.90,WSW,242,2.0,6.0,70,0.00,,SKC,0.00,VWS V12.07,2013-02-20 09:42:00,
2013-02-20 01:52:00,24.7,16.6,29.90,WSW,242,2.0,6.0,71,0.00,,SKC,0.00,VWS V12.07,2013-02-20 09:52:00,
2013-02-20 02:02:00,24.5,16.8,29.90,WSW,242,2.0,4.0,72,0.00,,SKC,0.00,VWS V12.07,2013-02-20 10:02:00,
2013-02-20 02:12:00,24.6,16.9,29.90,WSW,242,5.0,5.0,72,0.00,,SKC,0.00,VWS V12.07,2013-02-20 10:12:00,
2013-02-20 02:22:00,24.8,16.8,29.90,WSW,242,2.0,5.0,71,0.00,,SKC,0.00,VWS V12.07,2013-02-20 10:22:00,
2013-02-20 02:32:00,24.9,16.5,29.90,SW,233,7.0,7.0,70,0.00,,SKC,0.00,VWS V12.07,2013-02-20 10:32:00,
2013-02-20 02:42:00,24.8,16.1,29.91,SW,221,6.0,7.0,69,0.00,,SKC,0.00,VWS V12.07,2013-02-20 10:42:00,
2013-02-20 02:52:00,24.5,16.5,29.91,SSW,213,5.0,8.0,71,0.00,,SKC,0.00,VWS V12.07,2013-02-20 10:52:00,
2013-02-20 03:02:00,24.6,16.9,29.91,SSW,213,3.0,6.0,72,0.00,,SKC,0.00,VWS V12.07,2013-02-20 11:02:00,
2013-02-20 03:12:00,24.1,16.4,29.90,SW,218,2.0,6.0,72,0.00,,SKC,0.00,VWS V12.07,2013-02-20 11:12:00,
2013-02-20 03:22:00,23.7,16.3,29.91,SW,218,6.0,7.0,73,0.00,,SKC,0.00,VWS V12.07,2013-02-20 11:22:00,
2013-02-20 03:32:00,23.4,16.0,29.91,SW,217,2.0,4.0,73,0.00,,SKC,0.00,VWS V12.07,2013-02-20 11:32:00,
2013-02-20 03:42:00,23.2,15.8,29.91,SW,217,4.0,5.0,73,0.00,,SKC,0.00,VWS V12.07,2013-02-20 11:42:00,
2013-02-20 03:52:00,23.5,16.1,29.91,SW,217,3.0,6.0,73,0.00,,SKC,0.00,VWS V12.07,2013-02-20 11:52:00,
2013-02-20 04:02:00,23.3,15.3,29.92,SW,217,4.0,7.0,71,0.00,,SKC,0.00,VWS V12.07,2013-02-20 12:02:00,
2013-02-20 04:12:00,23.1,15.1,29.92,SW,218,6.0,7.0,71,0.00,,SKC,0.00,VWS V12.07,2013-02-20 12:12:00,
2013-02-20 04:22:00,22.8,14.8,29.92,SW,217,0.0,7.0,71,0.00,,SKC,0.00,VWS V12.07,2013-02-20 12:22:00,
2013-02-20 04:32:00,22.7,14.7,29.92,SW,217,2.0,5.0,71,0.00,,SKC,0.00,VWS V12.07,2013-02-20 12:32:00,
2013-02-20 04:42:00,23.0,15.0,29.93,SW,217,4.0,5.0,71,0.00,,SKC,0.00,VWS V12.07,2013-02-20 12:42:00,
2013-02-20 04:52:00,23.3,15.3,29.93,WSW,243,14.0,14.0,71,0.00,,SKC,0.00,VWS V12.07,2013-02-20 12:52:00,
2013-02-20 05:02:00,23.3,15.0,29.92,SW,221,6.0,7.0,70,0.10,,SKC,0.10,VWS V12.07,2013-02-20 13:02:00,
2013-02-20 05:12:00,23.6,15.3,29.94,SW,222,5.0,8.0,70,0.10,,SKC,0.10,VWS V12.07,2013-02-20 13:12:00,
2013-02-20 05:22:00,23.3,14.6,29.92,SSW,209,3.0,8.0,69,0.10,,SKC,0.10,VWS V12.07,2013-02-20 13:22:00,
2013-02-20 05:32:00,22.8,14.5,29.94,SSW,212,4.0,4.0,70,0.10,,SKC,0.10,VWS V12.07,2013-02-20 13:32:00,
2013-02-20 05:42:00,22.7,14.4,29.93,SW,214,7.0,7.0,70,0.10,,SKC,0.10,VWS V12.07,2013-02-20 13:42:00,
2013-02-20 05:52:00,22.8,14.5,29.94,SW,214,5.0,7.0,70,0.10,,SKC,0.10,VWS V12.07,2013-02-20 13:52:00,
2013-02-20 06:02:00,22.4,14.1,29.94,SW,215,7.0,7.0,70,0.00,,SKC,0.10,VWS V12.07,2013-02-20 14:02:00,
2013-02-20 06:12:00,21.9,13.6,29.94,SSW,213,7.0,9.0,70,0.00,,SKC,0.10,VWS V12.07,2013-02-20 14:12:00,
2013-02-20 06:22:00,21.8,13.5,29.95,SW,226,5.0,9.0,70,0.00,,SKC,0.10,VWS V12.07,2013-02-20 14:22:00,
2013-02-20 06:32:00,21.3,13.1,29.95,WSW,241,5.0,7.0,70,0.00,,SKC,0.10,VWS V12.07,2013-02-20 14:32:00,
2013-02-20 06:42:00,21.0,13.1,29.95,WSW,246,4.0,72.0,71,0.10,,SKC,0.20,VWS V12.07,2013-02-20 14:42:00,
2013-02-20 06:52:00,20.2,12.3,29.96,WSW,252,4.0,72.0,71,0.10,,SKC,0.20,VWS V12.07,2013-02-20 14:52:00,
2013-02-20 07:02:00,20.1,12.5,29.94,WSW,255,5.0,6.0,72,0.10,,SKC,0.20,VWS V12.07,2013-02-20 15:02:00,
2013-02-20 07:12:00,20.1,12.9,29.95,West,260,4.0,7.0,73,0.10,,SKC,0.20,VWS V12.07,2013-02-20 15:12:00,
2013-02-20 07:22:00,20.7,13.4,29.96,WSW,241,4.0,10.0,73,0.10,,SKC,0.20,VWS V12.07,2013-02-20 15:22:00,
2013-02-20 07:32:00,21.0,13.7,29.95,SSW,212,7.0,12.0,73,0.10,,SKC,0.20,VWS V12.07,2013-02-20 15:32:00,
2013-02-20 07:42:00,21.6,14.3,29.95,SW,217,2.0,12.0,73,0.10,,SKC,0.20,VWS V12.07,2013-02-20 15:42:00,
2013-02-20 07:52:00,21.7,13.8,29.95,SW,227,5.0,12.0,71,0.10,,SKC,0.20,VWS V12.07,2013-02-20 15:52:00,
2013-02-20 08:02:00,21.9,14.3,29.96,SW,232,3.0,6.0,72,0.00,,SKC,0.20,VWS V12.07,2013-02-20 16:02:00,
2013-02-20 08:12:00,23.6,16.2,29.95,SW,218,5.0,9.0,73,0.00,,SKC,0.20,VWS V12.07,2013-02-20 16:12:00,
2013-02-20 08:22:00,25.2,17.1,29.96,SW,214,10.0,12.0,71,0.00,,SKC,0.20,VWS V12.07,2013-02-20 16:22:00,
2013-02-20 08:32:00,26.1,17.3,29.97,SW,216,3.0,7.0,69,0.00,,SKC,0.20,VWS V12.07,2013-02-20 16:32:00,
2013-02-20 08:42:00,26.7,17.6,29.97,SSW,213,2.0,8.0,68,0.00,,SKC,0.20,VWS V12.07,2013-02-20 16:42:00,
2013-02-20 08:52:00,27.4,17.9,29.95,SSW,213,2.0,10.0,67,0.00,,SKC,0.20,VWS V12.07,2013-02-20 16:52:00,
2013-02-20 09:02:00,28.2,18.7,29.95,SSW,213,2.0,5.0,67,0.00,,SKC,0.20,VWS V12.07,2013-02-20 17:02:00,
2013-02-20 09:12:00,28.6,18.7,29.96,SW,220,2.0,10.0,66,0.00,,SKC,0.20,VWS V12.07,2013-02-20 17:12:00,
2013-02-20 09:22:00,30.0,19.3,29.96,SW,225,0.0,10.0,64,0.00,,SKC,0.20,VWS V12.07,2013-02-20 17:22:00,
2013-02-20 09:32:00,31.2,20.1,29.96,SW,222,5.0,9.0,63,0.00,,SKC,0.20,VWS V12.07,2013-02-20 17:32:00,
2013-02-20 09:42:00,31.7,20.2,29.95,SSW,198,5.0,12.0,62,0.00,,SKC,0.20,VWS V12.07,2013-02-20 17:42:00,
2013-02-20 09:52:00,31.9,20.0,29.95,SSW,196,8.0,12.0,61,0.00,,SKC,0.20,VWS V12.07,2013-02-20 17:52:00,
2013-02-20 10:02:00,32.2,19.5,29.95,SW,214,11.0,11.0,59,0.00,,SKC,0.20,VWS V12.07,2013-02-20 18:02:00,
2013-02-20 10:12:00,32.2,19.5,29.95,SSW,195,6.0,13.0,59,0.00,,SKC,0.20,VWS V12.07,2013-02-20 18:12:00,
2013-02-20 10:22:00,33.1,19.9,29.95,South,189,5.0,13.0,58,0.00,,SKC,0.20,VWS V12.07,2013-02-20 18:22:00,
2013-02-20 10:32:00,34.0,19.1,29.95,SSW,213,7.0,11.0,54,0.00,,SKC,0.20,VWS V12.07,2013-02-20 18:32:00,
2013-02-20 10:42:00,34.1,19.2,29.95,South,177,9.0,14.0,54,0.00,,SKC,0.20,VWS V12.07,2013-02-20 18:42:00,
2013-02-20 10:52:00,34.6,18.8,29.95,SSW,208,7.0,16.0,52,0.00,,SKC,0.20,VWS V12.07,2013-02-20 18:52:00,
2013-02-20 11:02:00,35.3,18.5,29.96,South,180,6.0,9.0,50,0.00,,SKC,0.20,VWS V12.07,2013-02-20 19:02:00,
2013-02-20 11:12:00,35.8,18.0,29.95,SSW,208,5.0,12.0,48,0.00,,SKC,0.20,VWS V12.07,2013-02-20 19:12:00,
2013-02-20 11:22:00,35.7,18.4,29.95,South,175,6.0,12.0,49,0.00,,SKC,0.20,VWS V12.07,2013-02-20 19:22:00,
2013-02-20 11:32:00,36.6,17.8,29.96,South,190,8.0,11.0,46,0.00,,SKC,0.20,VWS V12.07,2013-02-20 19:32:00,
2013-02-20 11:42:00,37.1,18.2,29.94,SW,219,4.0,12.0,46,0.00,,SKC,0.20,VWS V12.07,2013-02-20 19:42:00,
2013-02-20 11:52:00,36.8,18.0,29.94,South,173,2.0,12.0,46,0.00,,SKC,0.20,VWS V12.07,2013-02-20 19:52:00,
2013-02-20 12:02:00,37.0,18.2,29.93,SW,217,7.0,7.0,46,0.00,,SKC,0.20,VWS V12.07,2013-02-20 20:02:00,
2013-02-20 12:12:00,37.5,18.6,29.93,South,173,8.0,12.0,46,0.00,,SKC,0.20,VWS V12.07,2013-02-20 20:12:00,
2013-02-20 12:22:00,37.4,18.0,29.92,SSW,199,7.0,12.0,45,0.00,,SKC,0.20,VWS V12.07,2013-02-20 20:22:00,
2013-02-20 12:32:00,37.4,17.5,29.94,South,169,8.0,12.0,44,0.00,,SKC,0.20,VWS V12.07,2013-02-20 20:32:00,
2013-02-20 12:42:00,38.4,17.9,29.92,SSW,209,2.0,12.0,43,0.00,,SKC,0.20,VWS V12.07,2013-02-20 20:42:00,
2013-02-20 12:52:00,38.5,16.9,29.92,NW,306,8.0,13.0,41,0.00,,SKC,0.20,VWS V12.07,2013-02-20 20:52:00,
2013-02-20 13:02:00,38.7,17.6,29.92,SSW,195,3.0,9.0,42,0.00,,SKC,0.20,VWS V12.07,2013-02-20 21:02:00,
2013-02-20 13:12:00,38.8,17.7,29.92,South,182,1.0,9.0,42,0.00,,SKC,0.20,VWS V12.07,2013-02-20 21:12:00,
2013-02-20 13:22:00,39.1,18.0,29.93,South,187,2.0,9.0,42,0.00,,SKC,0.20,VWS V12.07,2013-02-20 21:22:00,
2013-02-20 13:32:00,39.3,18.1,29.92,South,188,0.0,5.0,42,0.00,,SKC,0.20,VWS V12.07,2013-02-20 21:32:00,
2013-02-20 13:42:00,38.8,18.2,29.91,ENE,68,7.0,9.0,43,0.00,,SKC,0.20,VWS V12.07,2013-02-20 21:42:00,
2013-02-20 13:52:00,38.1,18.1,29.91,North,6,6.0,14.0,44,0.00,,SKC,0.20,VWS V12.07,2013-02-20 21:52:00,
2013-02-20 14:02:00,38.6,18.0,29.90,North,7,2.0,9.0,43,0.00,,SKC,0.20,VWS V12.07,2013-02-20 22:02:00,
2013-02-20 14:12:00,38.7,18.1,29.90,NE,51,6.0,9.0,43,0.00,,SKC,0.20,VWS V12.07,2013-02-20 22:12:00,
2013-02-20 14:23:00,38.3,17.8,29.89,NNE,30,6.0,14.0,43,0.00,,SKC,0.20,VWS V12.07,2013-02-20 22:23:00,
2013-02-20 14:32:00,38.6,18.0,29.90,NE,35,6.0,12.0,43,0.00,,SKC,0.20,VWS V12.07,2013-02-20 22:32:00,
2013-02-20 14:42:00,38.1,17.6,29.89,NNE,33,0.0,12.0,43,0.00,,SKC,0.20,VWS V12.07,2013-02-20 22:42:00,
2013-02-20 14:52:00,38.2,17.7,29.89,NNE,33,2.0,12.0,43,0.00,,SKC,0.20,VWS V12.07,2013-02-20 22:52:00,
2013-02-20 15:02:00,38.4,18.4,29.89,North,5,2.0,7.0,44,0.00,,SKC,0.20,VWS V12.07,2013-02-20 23:02:00,
2013-02-20 15:12:00,38.3,18.8,29.91,NNE,20,9.0,11.0,45,0.00,,SKC,0.20,VWS V12.07,2013-02-20 23:12:00,
2013-02-20 15:22:00,37.5,18.6,29.90,NE,47,6.0,15.0,46,0.00,,SKC,0.20,VWS V12.07,2013-02-20 23:22:00,
2013-02-20 15:32:00,37.4,19.0,29.90,NNE,21,7.0,11.0,47,0.00,,SKC,0.20,VWS V12.07,2013-02-20 23:32:00,
2013-02-20 15:42:00,37.2,18.8,29.90,NNE,26,8.0,12.0,47,0.00,,SKC,0.20,VWS V12.07,2013-02-20 23:42:00,
2013-02-20 15:52:00,36.9,18.6,29.90,NNE,22,7.0,13.0,47,0.00,,SKC,0.20,VWS V12.07,2013-02-20 23:52:00,
2013-02-20 16:02:00,36.7,18.4,29.90,NNE,30,0.0,6.0,47,0.00,,SKC,0.20,VWS V12.07,2013-02-21 00:02:00,
2013-02-20 16:12:00,36.5,18.2,29.90,NNE,30,3.0,8.0,47,0.00,,SKC,0.20,VWS V12.07,2013-02-21 00:12:00,
2013-02-20 16:22:00,36.5,18.2,29.91,NNE,30,0.0,8.0,47,0.00,,SKC,0.20,VWS V12.07,2013-02-21 00:22:00,
2013-02-20 16:32:00,36.4,17.1,29.91,NNE,33,6.0,6.0,45,0.00,,SKC,0.20,VWS V12.07,2013-02-21 00:32:00,
2013-02-20 16:42:00,36.3,15.4,29.91,West,268,3.0,9.0,42,0.00,,SKC,0.20,VWS V12.07,2013-02-21 00:42:00,
2013-02-20 16:52:00,35.8,15.5,29.91,WSW,242,2.0,9.0,43,0.00,,SKC,0.20,VWS V12.07,2013-02-21 00:52:00,
2013-02-20 17:02:00,35.7,15.4,29.91,South,186,4.0,9.0,43,0.00,,SKC,0.20,VWS V12.07,2013-02-21 01:02:00,
2013-02-20 17:12:00,35.7,14.9,29.91,SW,215,4.0,9.0,42,0.00,,SKC,0.20,VWS V12.07,2013-02-21 01:12:00,
2013-02-20 17:22:00,35.5,15.2,29.91,SSW,201,7.0,11.0,43,0.00,,SKC,0.20,VWS V12.07,2013-02-21 01:22:00,
2013-02-20 17:32:00,35.4,15.1,29.91,SW,219,4.0,8.0,43,0.00,,SKC,0.20,VWS V12.07,2013-02-21 01:32:00,
2013-02-20 17:42:00,35.1,13.8,29.91,West,268,9.0,14.0,41,0.00,,SKC,0.20,VWS V12.07,2013-02-21 01:42:00,
2013-02-20 17:52:00,34.9,13.6,29.91,West,279,9.0,14.0,41,0.00,,SKC,0.20,VWS V12.07,2013-02-21 01:52:00,
2013-02-20 18:02:00,34.7,15.0,29.92,WNW,286,7.0,11.0,44,0.00,,SKC,0.20,VWS V12.07,2013-02-21 02:02:00,
2013-02-20 18:12:00,34.3,17.1,29.92,NW,321,9.0,12.0,49,0.00,,SKC,0.20,VWS V12.07,2013-02-21 02:12:00,
2013-02-20 18:22:00,34.0,17.8,29.91,NNW,335,10.0,12.0,51,0.00,,SKC,0.20,VWS V12.07,2013-02-21 02:22:00,
2013-02-20 18:32:00,33.8,18.0,29.93,NNE,18,9.0,10.0,52,0.00,,SKC,0.20,VWS V12.07,2013-02-21 02:32:00,
2013-02-20 18:42:00,34.0,17.8,29.92,NE,38,7.0,16.0,51,0.00,,SKC,0.20,VWS V12.07,2013-02-21 02:42:00,
2013-02-20 18:52:00,33.6,18.3,29.93,NNE,31,1.0,16.0,53,0.00,,SKC,0.20,VWS V12.07,2013-02-21 02:52:00,
2013-02-20 19:02:00,33.1,19.1,29.93,NNE,24,5.0,7.0,56,0.00,,SKC,0.20,VWS V12.07,2013-02-21 03:02:00,
2013-02-20 19:12:00,32.6,19.9,29.93,NE,36,4.0,7.0,59,0.00,,SKC,0.20,VWS V12.07,2013-02-21 03:12:00,
2013-02-20 19:22:00,32.4,20.1,29.93,NE,49,0.0,7.0,60,0.00,,SKC,0.20,VWS V12.07,2013-02-21 03:22:00,
2013-02-20 19:32:00,32.3,19.6,29.94,NE,52,2.0,4.0,59,0.00,,SKC,0.20,VWS V12.07,2013-02-21 03:32:00,
2013-02-20 19:42:00,32.2,19.9,29.95,NE,53,2.0,5.0,60,0.00,,SKC,0.20,VWS V12.07,2013-02-21 03:42:00,
2013-02-20 19:52:00,32.0,19.7,29.94,NE,53,4.0,5.0,60,0.00,,SKC,0.20,VWS V12.07,2013-02-21 03:52:00,
2013-02-20 20:02:00,32.0,19.3,29.94,NE,55,2.0,6.0,59,0.00,,SKC,0.20,VWS V12.07,2013-02-21 04:02:00,
2013-02-20 20:12:00,32.0,17.7,29.94,ESE,112,2.0,7.0,55,0.00,,SKC,0.20,VWS V12.07,2013-02-21 04:12:00,
2013-02-20 20:22:00,32.0,17.7,29.95,ESE,112,1.0,7.0,55,0.00,,SKC,0.20,VWS V12.07,2013-02-21 04:22:00,
2013-02-20 20:32:00,32.0,17.7,29.94,ESE,112,1.0,3.0,55,0.00,,SKC,0.20,VWS V12.07,2013-02-21 04:32:00,
2013-02-20 20:42:00,31.7,17.8,29.96,ESE,112,1.0,5.0,56,0.00,,SKC,0.20,VWS V12.07,2013-02-21 04:42:00,
2013-02-20 20:52:00,31.7,17.8,29.94,ESE,113,2.0,5.0,56,0.00,,SKC,0.20,VWS V12.07,2013-02-21 04:52:00,
2013-02-20 21:02:00,31.6,18.9,29.94,ESE,112,2.0,2.0,59,0.00,,SKC,0.20,VWS V12.07,2013-02-21 05:02:00,
2013-02-20 21:12:00,31.3,19.0,29.94,ESE,112,1.0,3.0,60,0.00,,SKC,0.20,VWS V12.07,2013-02-21 05:12:00,
2013-02-20 21:22:00,31.0,19.1,29.96,ESE,112,0.0,3.0,61,0.00,,SKC,0.20,VWS V12.07,2013-02-21 05:22:00,
2013-02-20 21:32:00,31.0,19.1,29.95,ESE,112,2.0,3.0,61,0.00,,SKC,0.20,VWS V12.07,2013-02-21 05:32:00,
2013-02-20 21:42:00,31.0,18.8,29.95,SSE,161,2.0,8.0,60,0.00,,SKC,0.20,VWS V12.07,2013-02-21 05:42:00,
2013-02-20 21:52:00,30.5,19.0,29.94,SW,216,4.0,9.0,62,0.00,,SKC,0.20,VWS V12.07,2013-02-21 05:52:00,
2013-02-20 22:02:00,30.1,19.4,29.95,SSW,211,2.0,12.0,64,0.00,,SKC,0.20,VWS V12.07,2013-02-21 06:02:00,
2013-02-20 22:12:00,29.7,20.1,29.95,SW,215,6.0,12.0,67,0.00,,SKC,0.20,VWS V12.07,2013-02-21 06:12:00,
2013-02-20 22:22:00,29.3,20.1,29.96,SSW,213,6.0,12.0,68,0.00,,SKC,0.20,VWS V12.07,2013-02-21 06:22:00,
2013-02-20 22:32:00,29.2,20.3,29.95,SW,215,5.0,12.0,69,0.00,,SKC,0.20,VWS V12.07,2013-02-21 06:32:00,
2013-02-20 22:42:00,29.0,20.5,29.97,SW,218,5.0,12.0,70,0.00,,SKC,0.20,VWS V12.07,2013-02-21 06:42:00,
2013-02-20 22:52:00,28.9,20.7,29.95,SW,216,5.0,12.0,71,0.00,,SKC,0.20,VWS V12.07,2013-02-21 06:52:00,
2013-02-20 23:03:00,28.6,21.1,29.95,SW,217,7.0,7.0,73,0.00,,SKC,0.20,VWS V12.07,2013-02-21 07:03:00,
2013-02-20 23:12:00,28.3,21.1,29.96,SW,217,4.0,8.0,74,0.00,,SKC,0.20,VWS V12.07,2013-02-21 07:12:00,
2013-02-20 23:22:00,28.5,21.6,29.97,SSW,201,11.0,14.0,75,0.00,,SKC,0.20,VWS V12.07,2013-02-21 07:22:00,
2013-02-20 23:32:00,28.3,21.4,29.95,SSW,209,11.0,13.0,75,0.00,,SKC,0.20,VWS V12.07,2013-02-21 07:32:00,
2013-02-20 23:42:00,28.3,21.4,29.95,SW,221,9.0,15.0,75,0.00,,SKC,0.20,VWS V12.07,2013-02-21 07:42:00,
2013-02-20 23:52:00,28.2,21.6,29.96,SW,214,6.0,15.0,76,0.00,,SKC,0.20,VWS V12.07,2013-02-21 07:52:00,